Time;durP1;ratioP1;P1;durP2;ratioP2;P2;SDS_P1;SDS_P2;PMS_P1;PMS_P2;Temp;Humidity;BMP_temperature;BMP_pressure;BME280_temperature;BME280_humidity;BME280_pressure;Samples;Min_cycle;Max_cycle;Signal;HPM_P1;HPM_P2
2022/09/27 00:01:38;;;;;;;3.55;2.88;;;10.30;99.90;;;;;;5004300;28;20371;-60
2022/09/27 00:04:03;;;;;;;2.67;2.15;;;10.30;99.90;;;;;;4995296;28;20027;-60
2022/09/27 00:06:30;;;;;;;5.10;3.00;;;10.20;99.90;;;;;;4998791;28;20077;-60
2022/09/27 00:08:57;;;;;;;3.15;2.78;;;10.20;99.90;;;;;;4999082;28;20026;-60
2022/09/27 00:11:42;;;;;;;8.55;2.97;;;10.20;99.90;;;;;;4998881;28;20110;-60
2022/09/27 00:14:10;;;;;;;3.97;2.85;;;10.20;99.90;;;;;;4999189;28;20405;-60
2022/09/27 00:16:37;;;;;;;6.03;3.30;;;10.10;99.90;;;;;;4999776;28;20405;-60
2022/09/27 00:19:12;;;;;;;7.70;3.13;;;10.10;99.90;;;;;;4998402;28;20390;-60
2022/09/27 00:21:38;;;;;;;3.97;3.47;;;10.10;99.90;;;;;;4996743;28;20033;-60
2022/09/27 00:24:04;;;;;;;3.35;3.05;;;10.10;99.90;;;;;;4999530;28;20033;-60
2022/09/27 00:26:30;;;;;;;5.00;3.28;;;10.10;99.90;;;;;;5000415;28;20039;-61
2022/09/27 00:28:56;;;;;;;6.50;3.83;;;10.10;99.90;;;;;;4999160;28;20118;-60
2022/09/27 00:31:30;;;;;;;6.38;3.97;;;10.10;99.90;;;;;;4997090;28;20040;-60
2022/09/27 00:33:58;;;;;;;8.55;4.22;;;10.10;99.90;;;;;;4999982;28;20490;-60
2022/09/27 00:36:25;;;;;;;7.47;3.65;;;10.10;99.90;;;;;;4998723;28;20490;-61
2022/09/27 00:38:52;;;;;;;5.28;3.50;;;10.10;99.90;;;;;;4999824;28;20030;-59
2022/09/27 00:41:21;;;;;;;7.93;4.15;;;10.20;99.90;;;;;;4997320;28;20022;-60
2022/09/27 00:43:55;;;;;;;9.07;3.97;;;10.10;99.90;;;;;;4999687;28;20526;-61
2022/09/27 00:46:45;;;;;;;7.55;4.10;;;10.10;99.90;;;;;;4999209;28;20513;-61
2022/09/27 00:49:21;;;;;;;6.03;4.03;;;10.10;99.90;;;;;;4998833;28;20026;-60
2022/09/27 00:51:52;;;;;;;9.20;4.55;;;10.10;99.90;;;;;;4995593;28;20022;-59
2022/09/27 00:54:19;;;;;;;6.03;4.10;;;10.10;99.90;;;;;;4996445;28;20113;-60
2022/09/27 00:56:48;;;;;;;12.57;4.57;;;10.10;99.90;;;;;;4998764;28;20030;-60
2022/09/27 00:59:18;;;;;;;4.95;3.97;;;10.00;99.90;;;;;;4999049;28;20054;-60
2022/09/27 01:01:44;;;;;;;7.93;4.30;;;10.00;99.90;;;;;;4997098;28;20562;-60
2022/09/27 01:04:13;;;;;;;7.05;4.43;;;10.00;99.90;;;;;;4997944;28;20109;-60
2022/09/27 01:06:39;;;;;;;5.28;4.43;;;10.00;99.90;;;;;;4997614;28;20048;-61
2022/09/27 01:09:07;;;;;;;6.35;4.50;;;10.00;99.90;;;;;;4995846;28;20375;-60
2022/09/27 01:12:01;;;;;;;4.88;3.92;;;10.00;99.90;;;;;;4996600;28;20109;-61
2022/09/27 01:15:04;;;;;;;4.85;4.20;;;10.00;99.90;;;;;;4996655;28;20170;-59
2022/09/27 01:18:07;;;;;;;5.68;4.30;;;10.00;99.90;;;;;;4999524;28;20030;-59
2022/09/27 01:20:36;;;;;;;9.98;4.55;;;10.00;99.90;;;;;;5000943;28;20034;-60
2022/09/27 01:23:17;;;;;;;6.38;4.43;;;10.00;99.90;;;;;;4999074;28;20026;-61
2022/09/27 01:26:08;;;;;;;8.25;4.75;;;10.00;99.90;;;;;;4992685;28;20047;-62
2022/09/27 01:28:37;;;;;;;9.70;5.45;;;10.00;99.90;;;;;;5002995;28;20026;-60
2022/09/27 01:31:37;;;;;;;8.98;5.30;;;10.00;99.90;;;;;;4997836;28;20506;-60
2022/09/27 01:34:15;;;;;;;5.82;4.68;;;10.00;99.90;;;;;;4998960;28;20062;-61
2022/09/27 01:36:59;;;;;;;4.50;4.10;;;10.10;99.90;;;;;;4996835;28;20630;-61
2022/09/27 01:39:48;;;;;;;6.70;4.55;;;10.00;99.90;;;;;;5002214;28;20052;-60
2022/09/27 01:42:23;;;;;;;7.03;4.95;;;10.00;99.90;;;;;;5001566;28;20041;-60
2022/09/27 01:44:54;;;;;;;7.97;5.55;;;10.00;99.90;;;;;;4999758;28;20389;-61
2022/09/27 01:47:34;;;;;;;8.57;4.40;;;10.00;99.90;;;;;;4998124;28;20121;-60
2022/09/27 01:50:26;;;;;;;5.15;3.83;;;10.00;99.90;;;;;;4998652;28;20018;-58
2022/09/27 01:52:55;;;;;;;6.65;4.82;;;10.00;99.90;;;;;;5002163;28;20068;-60
2022/09/27 01:55:24;;;;;;;4.20;3.80;;;10.00;99.90;;;;;;4997890;28;20033;-60
2022/09/27 01:57:58;;;;;;;8.82;5.00;;;10.00;99.90;;;;;;4997362;28;20107;-60
2022/09/27 02:00:24;;;;;;;7.38;4.70;;;9.90;99.90;;;;;;4993095;28;20026;-60
2022/09/27 02:02:56;;;;;;;9.60;5.60;;;9.90;99.90;;;;;;4995561;28;20033;-60
2022/09/27 02:05:29;;;;;;;7.13;4.57;;;9.90;99.90;;;;;;4998604;28;20641;-60
2022/09/27 02:08:09;;;;;;;6.80;4.97;;;9.90;99.90;;;;;;4997786;28;20033;-59
2022/09/27 02:10:39;;;;;;;4.68;3.90;;;9.90;99.90;;;;;;4994275;28;20450;-61
2022/09/27 02:13:12;;;;;;;4.68;4.28;;;9.90;99.90;;;;;;4995578;28;20034;-61
2022/09/27 02:15:51;;;;;;;5.22;4.47;;;9.90;99.90;;;;;;4996610;28;20069;-60
2022/09/27 02:18:27;;;;;;;9.05;4.75;;;9.90;99.90;;;;;;4996167;28;20053;-60
2022/09/27 02:20:57;;;;;;;4.57;4.03;;;10.00;99.90;;;;;;4998655;28;20123;-60
2022/09/27 02:23:34;;;;;;;5.38;3.75;;;10.00;99.90;;;;;;4994211;28;20565;-60
2022/09/27 02:26:03;;;;;;;6.97;4.25;;;10.00;99.90;;;;;;4992691;28;20035;-60
2022/09/27 02:28:36;;;;;;;11.32;4.35;;;10.00;99.90;;;;;;5000421;28;20034;-61
2022/09/27 02:31:02;;;;;;;5.75;3.63;;;10.00;99.90;;;;;;4998174;28;20043;-59
2022/09/27 02:33:38;;;;;;;4.55;3.20;;;10.00;99.90;;;;;;4997311;28;20113;-60
2022/09/27 02:36:04;;;;;;;3.38;2.35;;;9.90;99.90;;;;;;4995880;28;20037;-60
2022/09/27 02:38:30;;;;;;;4.63;2.97;;;9.90;99.90;;;;;;4998528;28;20117;-59
2022/09/27 02:40:56;;;;;;;5.80;2.72;;;9.90;99.90;;;;;;4994803;28;20027;-60
2022/09/27 02:43:27;;;;;;;4.57;2.78;;;9.80;99.90;;;;;;4996025;28;20038;-59
2022/09/27 02:46:16;;;;;;;3.38;2.92;;;9.80;99.90;;;;;;4997473;28;20037;-58
2022/09/27 02:49:09;;;;;;;4.28;3.20;;;9.70;99.90;;;;;;4992242;28;20063;-58
2022/09/27 02:52:08;;;;;;;2.95;2.60;;;9.70;99.90;;;;;;4997252;28;20128;-58
2022/09/27 02:54:48;;;;;;;5.60;3.25;;;9.70;99.90;;;;;;4999313;28;20037;-60
2022/09/27 02:57:55;;;;;;;3.40;2.77;;;9.70;99.90;;;;;;4997992;28;20084;-59
2022/09/27 03:00:48;;;;;;;12.93;3.05;;;9.60;99.90;;;;;;4975576;28;20035;-60
2022/09/27 03:03:26;;;;;;;3.88;2.70;;;9.60;99.90;;;;;;4981605;28;20039;-60
2022/09/27 03:06:00;;;;;;;3.80;3.03;;;9.60;99.90;;;;;;4991006;28;20033;-60
2022/09/27 03:08:26;;;;;;;5.25;2.90;;;9.60;99.90;;;;;;4996806;28;20031;-60
2022/09/27 03:10:52;;;;;;;4.05;2.97;;;9.60;99.90;;;;;;4994518;28;20041;-62
2022/09/27 03:13:17;;;;;;;3.67;2.90;;;9.50;99.90;;;;;;4994881;28;20615;-60
2022/09/27 03:15:43;;;;;;;4.03;2.63;;;9.50;99.90;;;;;;5001905;28;20045;-60
2022/09/27 03:18:08;;;;;;;4.05;2.80;;;9.50;99.90;;;;;;5002662;28;20101;-61
2022/09/27 03:20:34;;;;;;;3.00;2.38;;;9.50;99.90;;;;;;5002459;28;20539;-60
2022/09/27 03:23:00;;;;;;;4.53;2.40;;;9.50;99.90;;;;;;4998486;28;20101;-60
2022/09/27 03:25:25;;;;;;;5.72;2.53;;;9.50;99.90;;;;;;4995721;28;20033;-60
2022/09/27 03:27:51;;;;;;;4.85;2.15;;;9.50;99.90;;;;;;5000225;28;20022;-60
2022/09/27 03:30:17;;;;;;;3.38;2.58;;;9.50;99.90;;;;;;5000870;28;20034;-60
2022/09/27 03:32:44;;;;;;;4.25;2.25;;;9.50;99.90;;;;;;4998810;28;20491;-60
2022/09/27 03:35:11;;;;;;;4.65;2.65;;;9.50;99.90;;;;;;5000912;28;20052;-60
2022/09/27 03:37:37;;;;;;;2.75;1.90;;;9.40;99.90;;;;;;4996828;28;20030;-59
2022/09/27 03:40:04;;;;;;;3.47;2.60;;;9.40;99.90;;;;;;4995269;28;20038;-61
2022/09/27 03:42:30;;;;;;;8.10;2.45;;;9.40;99.90;;;;;;5001771;28;20030;-60
2022/09/27 03:44:56;;;;;;;3.42;2.55;;;9.50;99.90;;;;;;4999320;28;20025;-61
2022/09/27 03:47:22;;;;;;;2.70;2.10;;;9.40;99.90;;;;;;5001052;28;20509;-60
2022/09/27 03:49:47;;;;;;;2.88;2.00;;;9.50;99.90;;;;;;4999031;28;20461;-59
2022/09/27 03:52:14;;;;;;;2.38;2.03;;;9.50;99.90;;;;;;4997510;28;20023;-60
2022/09/27 03:54:40;;;;;;;2.92;2.20;;;9.50;99.90;;;;;;4997876;28;20092;-60
2022/09/27 03:57:05;;;;;;;2.30;1.90;;;9.50;99.90;;;;;;4998968;28;20482;-59
2022/09/27 03:59:31;;;;;;;1.92;1.60;;;9.50;99.90;;;;;;5001780;28;20398;-59
2022/09/27 04:01:57;;;;;;;2.00;1.58;;;9.50;99.90;;;;;;4999295;28;20030;-60
2022/09/27 04:04:23;;;;;;;7.00;1.98;;;9.50;99.90;;;;;;5000389;28;20120;-61
2022/09/27 04:06:49;;;;;;;3.63;1.65;;;9.50;99.90;;;;;;4999546;28;20029;-60
2022/09/27 04:09:15;;;;;;;2.28;1.88;;;9.50;99.90;;;;;;4994399;28;20030;-60
2022/09/27 04:11:40;;;;;;;3.45;1.63;;;9.50;99.90;;;;;;5002296;28;20406;-60
2022/09/27 04:14:07;;;;;;;3.65;1.70;;;9.60;99.90;;;;;;4996789;28;20038;-60
2022/09/27 04:16:34;;;;;;;2.50;1.77;;;9.50;99.90;;;;;;4999355;28;20037;-60
2022/09/27 04:19:00;;;;;;;3.05;1.55;;;9.60;99.90;;;;;;4997825;28;20401;-60
2022/09/27 04:21:27;;;;;;;2.80;1.60;;;9.50;99.90;;;;;;5001521;28;20026;-58
2022/09/27 04:23:52;;;;;;;2.70;1.50;;;9.50;99.90;;;;;;4994765;28;20486;-60
2022/09/27 04:26:19;;;;;;;5.88;1.55;;;9.60;99.90;;;;;;4993667;28;20112;-60
2022/09/27 04:28:45;;;;;;;2.05;1.40;;;9.60;99.90;;;;;;4999799;28;20023;-59
2022/09/27 04:31:11;;;;;;;3.58;1.50;;;9.60;99.90;;;;;;4995051;28;20111;-60
2022/09/27 04:33:37;;;;;;;1.67;1.58;;;9.60;99.90;;;;;;5000254;28;20097;-59
2022/09/27 04:38:47;;;;;;;2.65;1.50;;;9.60;99.90;;;;;;4996194;28;20505;-59
2022/09/27 04:41:14;;;;;;;3.83;1.50;;;9.60;99.90;;;;;;4998640;28;20026;-60
2022/09/27 04:43:40;;;;;;;3.33;1.70;;;9.60;99.90;;;;;;4997112;28;20050;-60
2022/09/27 04:46:05;;;;;;;2.20;1.23;;;9.60;99.90;;;;;;4996301;28;20045;-60
2022/09/27 04:48:31;;;;;;;4.35;1.70;;;9.60;99.90;;;;;;4996795;28;20384;-60
2022/09/27 04:51:01;;;;;;;2.05;1.70;;;9.50;99.90;;;;;;4998897;28;20726;-60
2022/09/27 04:53:28;;;;;;;3.28;1.50;;;9.50;99.90;;;;;;4998156;28;20026;-60
2022/09/27 04:55:54;;;;;;;2.22;1.30;;;9.50;99.90;;;;;;4997023;28;20058;-60
2022/09/27 04:58:21;;;;;;;1.27;1.10;;;9.50;99.90;;;;;;4998408;28;20099;-60
2022/09/27 05:00:47;;;;;;;5.47;1.52;;;9.50;99.90;;;;;;4994712;28;20041;-60
2022/09/27 05:03:13;;;;;;;2.63;1.42;;;9.50;99.90;;;;;;4998265;28;20470;-60
2022/09/27 05:05:40;;;;;;;4.95;1.40;;;9.60;99.90;;;;;;4998074;28;20041;-60
2022/09/27 05:08:06;;;;;;;1.17;1.08;;;9.50;99.90;;;;;;4998357;28;20034;-59
2022/09/27 05:10:32;;;;;;;3.10;1.20;;;9.50;99.90;;;;;;4997424;28;20502;-60
2022/09/27 05:12:57;;;;;;;1.75;1.20;;;9.60;99.90;;;;;;4997505;28;20026;-60
2022/09/27 05:15:23;;;;;;;1.83;1.20;;;9.60;99.90;;;;;;4998314;28;20077;-60
2022/09/27 05:17:52;;;;;;;1.15;1.00;;;9.60;99.90;;;;;;4995555;28;20026;-59
2022/09/27 05:20:18;;;;;;;2.47;0.98;;;9.60;99.90;;;;;;5000071;28;20022;-59
2022/09/27 05:22:45;;;;;;;1.63;1.20;;;9.60;99.90;;;;;;4998846;28;20034;-59
2022/09/27 05:25:11;;;;;;;3.08;1.33;;;9.60;99.90;;;;;;4997010;28;20109;-60
2022/09/27 05:27:37;;;;;;;3.80;1.20;;;9.50;99.90;;;;;;4996542;28;20394;-59
2022/09/27 05:30:04;;;;;;;3.83;1.00;;;9.50;99.90;;;;;;4997883;28;20034;-59
2022/09/27 05:32:30;;;;;;;5.25;1.27;;;9.50;99.90;;;;;;4999823;28;20566;-60
2022/09/27 05:34:55;;;;;;;2.80;1.30;;;9.50;99.90;;;;;;4999000;28;20046;-60
2022/09/27 05:37:21;;;;;;;6.40;1.17;;;9.40;99.90;;;;;;4996176;28;20124;-60
2022/09/27 05:39:48;;;;;;;5.72;2.28;;;9.40;99.90;;;;;;4996465;28;20034;-60
2022/09/27 05:42:14;;;;;;;7.03;1.27;;;9.40;99.90;;;;;;4995311;28;20113;-58
2022/09/27 05:44:41;;;;;;;2.17;1.10;;;9.40;99.90;;;;;;4993691;28;20113;-60
2022/09/27 05:47:07;;;;;;;1.80;1.10;;;9.40;99.90;;;;;;4994474;28;20142;-59
2022/09/27 05:49:33;;;;;;;2.75;1.45;;;9.40;99.90;;;;;;4998079;28;20515;-60
2022/09/27 05:51:59;;;;;;;3.15;1.60;;;9.40;99.90;;;;;;4994554;28;20092;-60
2022/09/27 05:54:25;;;;;;;3.15;1.67;;;9.40;99.90;;;;;;4998075;28;20037;-60
2022/09/27 05:56:57;;;;;;;7.25;2.42;;;9.40;99.90;;;;;;4999068;28;20520;-60
2022/09/27 05:59:24;;;;;;;7.38;1.65;;;9.40;99.90;;;;;;4997325;28;20418;-60
2022/09/27 06:01:50;;;;;;;3.20;1.40;;;9.40;99.90;;;;;;4995490;28;20630;-59
2022/09/27 06:04:16;;;;;;;6.25;2.03;;;9.40;99.90;;;;;;4998788;28;20041;-61
2022/09/27 06:06:43;;;;;;;6.57;1.65;;;9.40;99.90;;;;;;4999018;28;20026;-60
2022/09/27 06:09:13;;;;;;;4.07;1.55;;;9.40;99.90;;;;;;4999341;28;20033;-60
2022/09/27 06:11:39;;;;;;;4.75;1.55;;;9.40;99.90;;;;;;4995033;28;20037;-60
2022/09/27 06:14:05;;;;;;;3.22;1.27;;;9.50;99.90;;;;;;5004524;28;20029;-60
2022/09/27 06:16:30;;;;;;;8.73;2.03;;;9.50;99.90;;;;;;4997071;28;20037;-60
2022/09/27 06:18:56;;;;;;;2.22;1.27;;;9.50;99.90;;;;;;4997055;28;20105;-59
2022/09/27 06:21:23;;;;;;;4.07;1.40;;;9.60;99.90;;;;;;4998948;28;20105;-60
2022/09/27 06:23:49;;;;;;;2.95;1.30;;;9.50;99.90;;;;;;4994289;28;20109;-60
2022/09/27 06:26:16;;;;;;;2.75;1.40;;;9.60;99.90;;;;;;5002785;28;20434;-60
2022/09/27 06:28:41;;;;;;;3.15;1.30;;;9.50;99.90;;;;;;4996798;28;20417;-59
2022/09/27 06:31:07;;;;;;;1.60;0.90;;;9.50;99.90;;;;;;5001736;28;20035;-60
2022/09/27 06:33:34;;;;;;;3.17;1.33;;;9.50;99.90;;;;;;4993443;28;20046;-59
2022/09/27 06:36:07;;;;;;;1.63;1.10;;;9.50;99.90;;;;;;4999753;28;20231;-60
2022/09/27 06:38:33;;;;;;;1.40;1.27;;;9.60;99.90;;;;;;4996875;28;20035;-60
2022/09/27 06:41:03;;;;;;;2.85;1.10;;;9.60;99.90;;;;;;5003067;28;20410;-61
2022/09/27 06:43:30;;;;;;;2.13;1.08;;;9.70;99.90;;;;;;4993403;28;20054;-60
2022/09/27 06:46:04;;;;;;;2.45;1.20;;;9.70;99.90;;;;;;4994100;28;20022;-60
2022/09/27 06:48:31;;;;;;;1.10;1.00;;;9.80;99.90;;;;;;4998261;28;20529;-60
2022/09/27 06:50:57;;;;;;;2.35;0.90;;;9.80;99.90;;;;;;4997749;28;20054;-60
2022/09/27 06:53:23;;;;;;;1.25;1.00;;;9.80;99.90;;;;;;5000035;28;20054;-59
2022/09/27 06:55:50;;;;;;;1.23;0.90;;;9.80;99.90;;;;;;5001800;28;20026;-60
2022/09/27 07:01:01;;;;;;;2.45;0.90;;;9.80;99.90;;;;;;4996525;28;20057;-59
2022/09/27 07:03:34;;;;;;;1.05;0.80;;;9.80;99.90;;;;;;4999911;28;20648;-59
2022/09/27 07:06:02;;;;;;;0.82;0.60;;;9.80;99.90;;;;;;5000989;28;20085;-58
2022/09/27 07:08:28;;;;;;;1.17;0.60;;;9.80;99.90;;;;;;4998512;28;20030;-59
2022/09/27 07:11:00;;;;;;;0.70;0.70;;;9.80;99.90;;;;;;4999347;28;20026;-60
2022/09/27 07:13:29;;;;;;;1.27;0.70;;;9.80;99.90;;;;;;5003833;28;20037;-61
2022/09/27 07:15:54;;;;;;;1.48;0.80;;;9.90;99.90;;;;;;4998072;28;20040;-59
2022/09/27 07:18:20;;;;;;;1.13;0.60;;;9.90;99.90;;;;;;5003413;28;20116;-61
2022/09/27 07:20:45;;;;;;;1.60;0.70;;;9.90;99.90;;;;;;4997207;28;20030;-60
2022/09/27 07:23:13;;;;;;;0.95;0.80;;;9.90;99.90;;;;;;4997296;28;20025;-59
2022/09/27 07:25:38;;;;;;;1.10;0.90;;;9.90;99.90;;;;;;4998924;28;20034;-60
2022/09/27 07:28:07;;;;;;;0.77;0.60;;;9.90;99.90;;;;;;5004268;28;20037;-60
2022/09/27 07:30:34;;;;;;;1.52;0.60;;;9.90;99.90;;;;;;5000733;28;20081;-60
2022/09/27 07:33:01;;;;;;;0.80;0.55;;;9.90;99.90;;;;;;4998901;28;20040;-60
2022/09/27 07:35:27;;;;;;;1.25;0.60;;;9.90;99.90;;;;;;4998481;28;20037;-60
2022/09/27 07:37:55;;;;;;;1.17;0.60;;;10.00;99.90;;;;;;5000184;28;20034;-60
2022/09/27 07:40:24;;;;;;;1.27;0.50;;;10.00;99.90;;;;;;4997565;28;20467;-59
2022/09/27 07:42:55;;;;;;;0.57;0.57;;;10.10;99.90;;;;;;4998908;28;20128;-60
2022/09/27 07:45:22;;;;;;;0.60;0.57;;;10.20;99.90;;;;;;4997186;28;20026;-59
2022/09/27 07:47:48;;;;;;;0.50;0.50;;;10.20;99.90;;;;;;4996596;28;20030;-60
2022/09/27 07:50:13;;;;;;;0.85;0.50;;;10.10;99.90;;;;;;4998450;28;20117;-59
2022/09/27 07:52:41;;;;;;;2.50;0.70;;;10.20;99.90;;;;;;4998378;28;20041;-60
2022/09/27 07:55:08;;;;;;;1.33;0.70;;;10.20;99.90;;;;;;5000985;28;20137;-59
2022/09/27 07:57:34;;;;;;;0.60;0.50;;;10.30;99.90;;;;;;4999317;28;20123;-58
2022/09/27 07:59:59;;;;;;;0.57;0.50;;;10.30;99.90;;;;;;4993134;28;20601;-58
2022/09/27 08:02:25;;;;;;;0.93;0.50;;;10.30;99.90;;;;;;5000734;28;20037;-59
2022/09/27 08:04:52;;;;;;;1.45;0.50;;;10.20;99.90;;;;;;4996253;28;20482;-60
2022/09/27 08:07:17;;;;;;;0.40;0.40;;;10.10;99.90;;;;;;5000177;28;20030;-60
2022/09/27 08:09:43;;;;;;;0.45;0.45;;;10.10;99.90;;;;;;4994919;28;20017;-60
2022/09/27 08:12:09;;;;;;;0.40;0.40;;;9.90;99.90;;;;;;4997779;28;20573;-60
2022/09/27 08:14:35;;;;;;;0.52;0.40;;;9.80;99.90;;;;;;4999616;28;20038;-59
2022/09/27 08:17:01;;;;;;;0.40;0.40;;;9.80;99.90;;;;;;4995932;28;20029;-59
2022/09/27 08:19:26;;;;;;;0.85;0.50;;;9.90;99.90;;;;;;5000034;28;20478;-59
2022/09/27 08:21:55;;;;;;;0.45;0.40;;;10.00;99.90;;;;;;5003225;28;20068;-59
2022/09/27 08:24:21;;;;;;;0.40;0.40;;;10.10;99.90;;;;;;4995488;28;20109;-59
2022/09/27 08:26:46;;;;;;;0.50;0.50;;;10.30;99.90;;;;;;4998000;28;20503;-59
2022/09/27 08:29:12;;;;;;;0.70;0.47;;;10.40;99.90;;;;;;4998739;28;20189;-59
2022/09/27 08:31:38;;;;;;;0.50;0.40;;;10.40;99.90;;;;;;5001505;28;20081;-59
2022/09/27 08:34:04;;;;;;;0.40;0.40;;;10.40;99.90;;;;;;4999388;28;20057;-59
2022/09/27 08:36:30;;;;;;;0.40;0.40;;;10.30;99.90;;;;;;4999428;28;20040;-60
2022/09/27 08:38:58;;;;;;;0.50;0.50;;;10.30;99.90;;;;;;4997357;28;20091;-59
2022/09/27 08:41:45;;;;;;;0.35;0.35;;;10.20;99.90;;;;;;5001059;28;20032;-60
2022/09/27 08:44:36;;;;;;;1.23;0.52;;;10.10;99.90;;;;;;5001773;28;20038;-59
2022/09/27 08:47:13;;;;;;;0.57;0.40;;;10.00;99.90;;;;;;4996136;28;20030;-60
2022/09/27 08:49:49;;;;;;;0.40;0.40;;;9.90;99.90;;;;;;4999211;28;20061;-59
2022/09/27 08:52:22;;;;;;;0.50;0.40;;;9.90;99.90;;;;;;4998166;28;20455;-61
2022/09/27 08:54:49;;;;;;;3.95;0.60;;;9.80;99.90;;;;;;4996148;28;20034;-61
2022/09/27 08:57:16;;;;;;;1.83;0.90;;;9.70;99.90;;;;;;5000398;28;20033;-59
2022/09/27 08:59:51;;;;;;;0.60;0.60;;;9.70;99.90;;;;;;4994451;28;20031;-60
2022/09/27 09:02:20;;;;;;;1.95;0.60;;;9.70;99.90;;;;;;4997263;28;20031;-60
2022/09/27 09:04:50;;;;;;;0.65;0.50;;;9.70;99.90;;;;;;4996639;28;20096;-61
2022/09/27 09:08:07;;;;;;;0.60;0.55;;;9.70;99.90;;;;;;4998744;28;20413;-60
2022/09/27 09:13:35;;;;;;;0.82;0.70;;;9.60;99.90;;;;;;5004509;28;20084;-60
2022/09/27 09:16:22;;;;;;;1.85;0.60;;;9.60;99.90;;;;;;4998797;28;20039;-60
2022/09/27 09:19:20;;;;;;;0.68;0.63;;;9.60;99.90;;;;;;4998340;28;20026;-60
2022/09/27 09:22:04;;;;;;;0.60;0.60;;;9.50;99.90;;;;;;4999462;28;20046;-59
2022/09/27 09:24:33;;;;;;;0.60;0.60;;;9.60;99.90;;;;;;4998904;28;20026;-60
2022/09/27 09:27:13;;;;;;;0.60;0.60;;;9.50;99.90;;;;;;5000995;28;20022;-60
2022/09/27 09:29:58;;;;;;;0.50;0.50;;;9.60;99.90;;;;;;4990974;28;20080;-60
2022/09/27 09:32:24;;;;;;;0.75;0.75;;;9.50;99.90;;;;;;4999341;28;20026;-61
2022/09/27 09:35:14;;;;;;;2.30;0.90;;;9.50;99.90;;;;;;4995140;28;20118;-60
2022/09/27 09:37:56;;;;;;;1.33;1.00;;;9.50;99.90;;;;;;4999688;28;20026;-60
2022/09/27 09:40:29;;;;;;;1.75;1.20;;;9.50;99.90;;;;;;4998397;28;20031;-61
2022/09/27 09:43:16;;;;;;;1.00;0.90;;;9.60;99.90;;;;;;4995279;28;20034;-61
2022/09/27 09:45:46;;;;;;;1.00;0.80;;;9.60;99.90;;;;;;4995478;28;20414;-60
2022/09/27 09:48:31;;;;;;;0.80;0.80;;;9.70;99.90;;;;;;4996594;28;20046;-60
2022/09/27 09:51:00;;;;;;;0.88;0.80;;;9.90;99.90;;;;;;5002990;28;20486;-60
2022/09/27 09:53:53;;;;;;;0.70;0.70;;;10.00;99.90;;;;;;4997067;28;20472;-60
2022/09/27 09:56:32;;;;;;;0.90;0.90;;;10.10;99.90;;;;;;5002077;28;20216;-60
2022/09/27 09:59:09;;;;;;;1.00;0.90;;;10.20;99.90;;;;;;4996280;28;20677;-60
2022/09/27 10:01:41;;;;;;;1.13;0.80;;;10.40;99.90;;;;;;4995254;28;20091;-61
2022/09/27 10:04:15;;;;;;;0.70;0.70;;;10.60;99.90;;;;;;4998746;28;20026;-61
2022/09/27 10:06:41;;;;;;;1.10;0.60;;;10.70;99.90;;;;;;4996051;28;20385;-57
2022/09/27 10:09:10;;;;;;;0.90;0.90;;;10.90;99.90;;;;;;4997840;28;20022;-59
2022/09/27 10:11:39;;;;;;;1.15;0.75;;;10.90;99.90;;;;;;4999200;28;20030;-60
2022/09/27 10:14:14;;;;;;;2.67;1.27;;;11.10;99.90;;;;;;4997536;28;20040;-60
2022/09/27 10:16:49;;;;;;;1.00;1.00;;;11.10;99.90;;;;;;4995004;28;20078;-60
2022/09/27 10:19:32;;;;;;;1.52;0.95;;;11.10;99.90;;;;;;4993961;28;20054;-60
2022/09/27 10:22:02;;;;;;;0.63;0.63;;;11.10;99.90;;;;;;4992097;28;20106;-60
2022/09/27 10:24:28;;;;;;;0.73;0.73;;;11.10;99.90;;;;;;4997087;28;20026;-59
2022/09/27 10:26:58;;;;;;;1.00;0.93;;;11.00;99.90;;;;;;5000167;28;20049;-58
2022/09/27 10:29:36;;;;;;;1.13;0.93;;;11.00;99.90;;;;;;5000000;28;20061;-59
2022/09/27 10:32:04;;;;;;;0.95;0.80;;;11.10;99.90;;;;;;4999580;28;20301;-60
2022/09/27 10:34:32;;;;;;;1.10;0.80;;;11.30;99.90;;;;;;4999305;28;20062;-60
2022/09/27 10:37:10;;;;;;;0.82;0.70;;;11.50;99.90;;;;;;4996654;28;20026;-59
2022/09/27 10:39:37;;;;;;;0.70;0.70;;;11.80;99.90;;;;;;5003097;28;20494;-61
2022/09/27 10:42:31;;;;;;;0.88;0.70;;;11.90;99.90;;;;;;5000116;28;20034;-59
2022/09/27 10:44:57;;;;;;;0.60;0.60;;;11.80;99.90;;;;;;5000723;28;20506;-60
2022/09/27 10:47:25;;;;;;;0.60;0.60;;;11.60;99.90;;;;;;4997794;28;20525;-59
2022/09/27 10:50:00;;;;;;;0.88;0.63;;;11.20;99.90;;;;;;5000873;28;20157;-60
2022/09/27 10:52:26;;;;;;;1.60;0.73;;;10.90;99.90;;;;;;5002679;28;20034;-59
2022/09/27 10:55:04;;;;;;;0.93;0.75;;;10.70;99.90;;;;;;5000869;28;20438;-60
2022/09/27 10:57:31;;;;;;;0.77;0.77;;;10.50;99.90;;;;;;5001586;28;20045;-60
2022/09/27 11:00:05;;;;;;;1.02;0.77;;;10.40;99.90;;;;;;4999448;28;20057;-59
2022/09/27 11:02:35;;;;;;;1.38;0.80;;;10.40;99.90;;;;;;4999503;28;20049;-59
2022/09/27 11:05:14;;;;;;;1.00;0.90;;;10.50;99.90;;;;;;4998898;28;20031;-60
2022/09/27 11:07:51;;;;;;;0.60;0.60;;;10.80;99.90;;;;;;5001824;28;20143;-61
2022/09/27 11:10:36;;;;;;;1.17;0.70;;;11.10;99.90;;;;;;5002498;28;20382;-60
2022/09/27 11:13:16;;;;;;;1.30;1.20;;;11.50;99.90;;;;;;5000272;28;20124;-60
2022/09/27 11:16:01;;;;;;;0.60;0.60;;;11.60;99.90;;;;;;5000766;28;20026;-59
2022/09/27 11:18:49;;;;;;;1.38;1.23;;;11.70;99.90;;;;;;5001026;28;20042;-60
2022/09/27 11:21:56;;;;;;;1.10;1.00;;;11.70;99.90;;;;;;4994815;28;20073;-60
2022/09/27 11:24:49;;;;;;;2.35;1.20;;;11.80;99.90;;;;;;4979304;28;20166;-59
2022/09/27 11:27:32;;;;;;;3.15;0.90;;;11.80;99.90;;;;;;4979017;28;20050;-60
2022/09/27 11:30:15;;;;;;;1.30;1.02;;;11.70;99.90;;;;;;4975571;28;21295;-59
2022/09/27 11:32:56;;;;;;;1.17;0.70;;;11.50;99.90;;;;;;4981076;28;20041;-61
2022/09/27 11:35:58;;;;;;;1.58;1.48;;;11.20;99.90;;;;;;4980736;28;20043;-60
2022/09/27 11:38:43;;;;;;;1.75;1.50;;;11.00;99.90;;;;;;4981456;28;20130;-60
2022/09/27 11:41:28;;;;;;;0.90;0.80;;;10.80;99.90;;;;;;4981416;28;20450;-61
2022/09/27 11:44:01;;;;;;;1.77;0.90;;;10.80;99.90;;;;;;4978423;28;20039;-61
2022/09/27 11:46:38;;;;;;;1.05;0.70;;;10.80;99.90;;;;;;4981144;28;20057;-60
2022/09/27 11:49:35;;;;;;;2.97;0.60;;;10.70;99.90;;;;;;4982423;28;20042;-62
2022/09/27 11:52:44;;;;;;;0.80;0.80;;;10.50;99.90;;;;;;4977589;28;20050;-61
2022/09/27 11:55:32;;;;;;;0.90;0.70;;;10.50;99.90;;;;;;4976184;28;20030;-62
2022/09/27 11:58:34;;;;;;;0.65;0.65;;;10.50;99.90;;;;;;4978830;28;20399;-60
2022/09/27 12:01:09;;;;;;;0.90;0.80;;;10.60;99.90;;;;;;4977251;28;20030;-61
2022/09/27 12:03:42;;;;;;;1.33;0.88;;;10.70;99.90;;;;;;4981799;28;20030;-61
2022/09/27 12:06:32;;;;;;;1.40;1.10;;;10.90;99.90;;;;;;4981748;28;20039;-61
2022/09/27 12:09:28;;;;;;;1.75;1.17;;;11.10;99.90;;;;;;4975991;28;20034;-60
2022/09/27 12:12:02;;;;;;;2.05;1.10;;;11.40;99.90;;;;;;4976784;28;20027;-60
2022/09/27 12:14:41;;;;;;;1.88;1.10;;;11.50;99.90;;;;;;4981648;28;20035;-59
2022/09/27 12:17:15;;;;;;;1.45;1.25;;;11.50;99.90;;;;;;4977348;28;20023;-60
2022/09/27 12:19:49;;;;;;;1.30;1.10;;;11.50;99.90;;;;;;4981853;28;20022;-61
2022/09/27 12:22:18;;;;;;;1.10;1.00;;;11.50;99.90;;;;;;4980402;28;20031;-60
2022/09/27 12:24:45;;;;;;;2.00;1.65;;;11.60;99.90;;;;;;4980109;28;20033;-61
2022/09/27 12:27:39;;;;;;;2.20;1.27;;;11.70;99.90;;;;;;4978912;28;20033;-61
2022/09/27 12:30:05;;;;;;;1.60;1.30;;;11.60;99.90;;;;;;4979519;28;20096;-60
2022/09/27 12:32:37;;;;;;;1.40;1.30;;;11.50;99.90;;;;;;4991107;28;20125;-60
2022/09/27 12:35:26;;;;;;;2.95;1.58;;;11.40;99.90;;;;;;5000300;28;20026;-60
2022/09/27 12:38:14;;;;;;;2.25;1.15;;;11.30;99.90;;;;;;4999429;28;20089;-59
2022/09/27 12:40:43;;;;;;;1.95;1.33;;;11.20;99.90;;;;;;4997908;28;20080;-60
2022/09/27 12:43:26;;;;;;;3.05;1.40;;;11.30;99.90;;;;;;4996780;28;20065;-61
2022/09/27 12:46:11;;;;;;;1.58;1.30;;;11.30;99.90;;;;;;5000322;28;20391;-60
2022/09/27 12:48:46;;;;;;;1.73;1.30;;;11.40;99.90;;;;;;4996610;28;20442;-60
2022/09/27 12:51:14;;;;;;;1.05;0.95;;;11.50;99.90;;;;;;4998631;28;20544;-60
2022/09/27 12:54:04;;;;;;;1.88;1.00;;;11.60;99.90;;;;;;4998679;28;20046;-59
2022/09/27 12:56:48;;;;;;;3.83;1.38;;;11.60;99.90;;;;;;4993750;28;20030;-60
2022/09/27 12:59:35;;;;;;;2.13;1.20;;;11.60;99.90;;;;;;5000417;28;20062;-61
2022/09/27 13:02:31;;;;;;;2.40;1.30;;;11.70;99.90;;;;;;4996972;28;20717;-60
2022/09/27 13:05:06;;;;;;;1.35;1.00;;;11.70;99.90;;;;;;4999786;28;20040;-59
2022/09/27 13:07:35;;;;;;;2.08;1.13;;;11.80;99.90;;;;;;4999527;28;20065;-59
2022/09/27 13:10:44;;;;;;;1.00;0.90;;;11.90;99.90;;;;;;4996279;28;20040;-59
2022/09/27 13:13:17;;;;;;;4.90;0.90;;;11.90;99.90;;;;;;4996593;28;20029;-60
2022/09/27 13:15:44;;;;;;;2.03;0.93;;;12.00;99.90;;;;;;4995263;28;20026;-61
2022/09/27 13:18:31;;;;;;;0.88;0.80;;;12.00;99.90;;;;;;5005410;28;20050;-60
2022/09/27 13:20:57;;;;;;;1.77;0.98;;;11.90;99.90;;;;;;4997353;28;20032;-60
2022/09/27 13:23:43;;;;;;;1.33;0.90;;;11.80;99.90;;;;;;4998423;28;20113;-60
2022/09/27 13:26:42;;;;;;;1.60;0.90;;;11.70;99.90;;;;;;4992999;28;20025;-59
2022/09/27 13:29:21;;;;;;;2.47;1.05;;;11.60;99.90;;;;;;4997622;28;20026;-60
2022/09/27 13:31:53;;;;;;;1.10;0.70;;;11.70;99.90;;;;;;4997117;28;20034;-58